logo
Search for airport 
image banner adimage banner adimage banner ad
image banner ad

ORER - Erbil International Airport

Located in Erbil, Iraq

ICAO - ORER, IATA - EBL

Data provided by Airmate  

General information

Coordinates: N36°14'17" E43°56'48"
Elevation is 1363 feet MSL.
 
View others Airports in Arbil Governorate

Operational data

Special qualification required
Current time UTC:
Current local time:
Weather
METAR: ORER 152100Z 06004KT 9000 NSC 30/08 Q1003
TAF: TAF ORER 151700Z 1518/1618 24008KT 7000 NSC PROB30 1518/1602 27005G16KT 3500 BLDU BECMG 1601/1603 09005KT
View NOTAMs / SUP AIP / TFR affecting this airport [VIEW]
Communications frequencies: [VIEW]

Runways:

RWY identifierQFULength (ft)Width (ft)SurfaceLDA (ft)
18180°15748246U
3615748246U

Airport contact information

Address: Erbil Iraq

Satellite view of ORER